createdAt,value
2023-01-13T00:01:25.803Z,100.00
2023-01-13T00:03:53.782Z,100.00
2023-01-13T00:06:25.832Z,100.00
2023-01-13T00:08:54.156Z,100.00
2023-01-13T00:11:22.535Z,100.00
2023-01-13T00:13:50.365Z,100.00
2023-01-13T00:16:19.009Z,100.00
2023-01-13T00:18:47.321Z,100.00
2023-01-13T00:21:17.045Z,100.00
2023-01-13T00:23:45.156Z,100.00
2023-01-13T00:26:15.199Z,100.00
2023-01-13T00:28:42.825Z,100.00
2023-01-13T00:31:13.305Z,100.00
2023-01-13T00:33:41.942Z,100.00
2023-01-13T00:36:12.939Z,100.00
2023-01-13T00:38:42.912Z,100.00
2023-01-13T00:41:13.406Z,100.00
2023-01-13T00:43:41.478Z,100.00
2023-01-13T00:46:11.105Z,100.00
2023-01-13T00:48:39.644Z,100.00
2023-01-13T00:51:18.740Z,100.00
2023-01-13T00:53:49.084Z,100.00
2023-01-13T00:56:24.413Z,100.00
2023-01-13T00:58:58.883Z,100.00
2023-01-13T01:01:26.581Z,100.00
2023-01-13T01:03:54.918Z,100.00
2023-01-13T01:06:26.885Z,100.00
2023-01-13T01:08:55.221Z,100.00
2023-01-13T01:11:28.028Z,100.00
2023-01-13T01:13:57.785Z,100.00
2023-01-13T01:16:28.244Z,100.00
2023-01-13T01:18:56.316Z,100.00
2023-01-13T01:21:25.284Z,100.00
2023-01-13T01:23:53.847Z,100.00
2023-01-13T01:26:23.366Z,100.00
2023-01-13T01:28:51.695Z,100.00
2023-01-13T01:31:27.872Z,100.00
2023-01-13T01:33:55.509Z,100.00
2023-01-13T01:36:26.851Z,100.00
2023-01-13T01:38:56.695Z,100.00
2023-01-13T01:41:27.007Z,100.00
2023-01-13T01:44:02.371Z,100.00
2023-01-13T01:46:40.797Z,100.00
2023-01-13T01:49:21.694Z,100.00
2023-01-13T01:51:57.837Z,100.00
2023-01-13T01:54:36.304Z,100.00
2023-01-13T01:57:04.566Z,100.00
2023-01-13T01:59:32.742Z,100.00
2023-01-13T02:02:00.590Z,100.00
2023-01-13T02:04:32.118Z,100.00
2023-01-13T02:07:00.434Z,100.00
2023-01-13T02:09:28.397Z,100.00
2023-01-13T02:12:14.610Z,100.00
2023-01-13T02:14:42.748Z,100.00
2023-01-13T02:17:32.050Z,100.00
2023-01-13T02:20:34.850Z,100.00
2023-01-13T02:23:58.363Z,100.00
2023-01-13T02:26:55.336Z,100.00
2023-01-13T02:29:57.445Z,100.00
2023-01-13T02:32:30.791Z,100.00
2023-01-13T02:35:08.495Z,100.00
2023-01-13T02:37:40.802Z,100.00
2023-01-13T02:40:20.418Z,100.00
2023-01-13T02:43:27.480Z,100.00
2023-01-13T02:46:15.228Z,100.00
2023-01-13T02:48:45.083Z,100.00
2023-01-13T02:51:16.017Z,100.00
2023-01-13T02:53:47.341Z,100.00
2023-01-13T02:56:16.757Z,100.00
2023-01-13T02:58:47.091Z,100.00
2023-01-13T03:01:14.827Z,100.00
2023-01-13T03:03:43.934Z,100.00
2023-01-13T03:06:40.877Z,100.00
2023-01-13T03:09:16.763Z,100.00
2023-01-13T03:12:14.430Z,100.00
2023-01-13T03:14:46.292Z,100.00
2023-01-13T03:17:27.433Z,100.00
2023-01-13T03:20:13.029Z,100.00
2023-01-13T03:23:08.861Z,100.00
2023-01-13T03:25:50.662Z,100.00
2023-01-13T03:28:29.124Z,100.00
2023-01-13T03:31:02.034Z,100.00
2023-01-13T03:34:00.505Z,100.00
2023-01-13T03:36:29.234Z,100.00
2023-01-13T03:39:00.650Z,100.00
2023-01-13T03:41:34.885Z,100.00
2023-01-13T03:44:22.351Z,100.00
2023-01-13T03:47:13.185Z,100.00
2023-01-13T03:49:50.224Z,100.00
2023-01-13T03:52:41.946Z,100.00
2023-01-13T03:55:13.604Z,100.00
2023-01-13T03:57:54.761Z,100.00
2023-01-13T04:00:26.444Z,100.00
2023-01-13T04:03:15.488Z,100.00
2023-01-13T04:05:47.546Z,100.00
2023-01-13T04:08:19.907Z,100.00
2023-01-13T04:10:56.017Z,100.00
2023-01-13T04:13:26.563Z,100.00
2023-01-13T04:15:54.278Z,100.00
2023-01-13T04:18:25.101Z,100.00
2023-01-13T04:20:57.365Z,100.00
2023-01-13T04:23:25.681Z,100.00
2023-01-13T04:25:54.422Z,100.00
2023-01-13T04:28:22.563Z,100.00
2023-01-13T04:30:50.527Z,100.00
2023-01-13T04:33:19.272Z,100.00
2023-01-13T04:35:47.423Z,100.00
2023-01-13T04:38:17.885Z,100.00
2023-01-13T04:40:46.624Z,100.00
2023-01-13T04:43:15.783Z,100.00
2023-01-13T04:45:44.028Z,100.00
2023-01-13T04:48:12.139Z,100.00
2023-01-13T04:50:40.178Z,100.00
2023-01-13T04:53:07.826Z,100.00
2023-01-13T04:55:35.621Z,100.00
2023-01-13T04:58:08.271Z,100.00
2023-01-13T05:00:36.948Z,100.00
2023-01-13T05:03:05.056Z,100.00
2023-01-13T05:05:32.634Z,100.00
2023-01-13T05:08:00.647Z,100.00
2023-01-13T05:10:28.634Z,100.00
2023-01-13T05:13:14.947Z,100.00
2023-01-13T05:16:02.029Z,100.00
2023-01-13T05:18:31.034Z,100.00
2023-01-13T05:20:58.898Z,100.00
2023-01-13T05:23:45.419Z,100.00
2023-01-13T05:26:13.268Z,100.00
2023-01-13T05:28:40.813Z,100.00
2023-01-13T05:31:08.852Z,100.00
2023-01-13T05:33:36.783Z,100.00
2023-01-13T05:36:04.512Z,100.00
2023-01-13T05:38:32.050Z,100.00
2023-01-13T05:41:19.030Z,100.00
2023-01-13T05:43:46.708Z,100.00
2023-01-13T05:46:15.022Z,100.00
2023-01-13T05:48:43.039Z,100.00
2023-01-13T05:51:12.437Z,100.00
2023-01-13T05:53:43.408Z,100.00
2023-01-13T05:56:11.560Z,100.00
2023-01-13T05:58:39.308Z,100.00
2023-01-13T06:01:08.931Z,100.00
2023-01-13T06:03:37.678Z,100.00
2023-01-13T06:06:05.406Z,100.00
2023-01-13T06:08:33.090Z,100.00
2023-01-13T06:11:01.156Z,100.00
2023-01-13T06:13:28.689Z,100.00
2023-01-13T06:15:59.405Z,100.00
2023-01-13T06:18:27.921Z,100.00
2023-01-13T06:20:55.812Z,100.00
2023-01-13T06:23:23.583Z,100.00
2023-01-13T06:26:03.595Z,100.00
2023-01-13T06:28:33.287Z,100.00
2023-01-13T06:31:04.204Z,100.00
2023-01-13T06:33:37.593Z,100.00
2023-01-13T06:36:11.157Z,100.00
2023-01-13T06:38:41.038Z,100.00
2023-01-13T06:41:09.160Z,100.00
2023-01-13T06:43:38.744Z,100.00
2023-01-13T06:46:06.812Z,100.00
2023-01-13T06:48:35.618Z,100.00
2023-01-13T06:51:04.831Z,100.00
2023-01-13T06:53:32.482Z,100.00
2023-01-13T06:56:00.400Z,100.00
2023-01-13T06:58:27.991Z,100.00
2023-01-13T07:01:00.178Z,100.00
2023-01-13T07:03:28.312Z,100.00
2023-01-13T07:05:56.803Z,100.00
2023-01-13T07:08:24.812Z,100.00
2023-01-13T07:10:53.146Z,100.00
2023-01-13T07:13:40.080Z,100.00
2023-01-13T07:16:09.218Z,100.00
2023-01-13T07:18:37.161Z,100.00
2023-01-13T07:21:07.198Z,100.00
2023-01-13T07:23:37.193Z,100.00
2023-01-13T07:26:05.100Z,100.00
2023-01-13T07:28:33.311Z,100.00
2023-01-13T07:31:01.520Z,100.00
2023-01-13T07:33:33.142Z,100.00
2023-01-13T07:36:03.261Z,100.00
2023-01-13T07:38:31.591Z,100.00
2023-01-13T07:41:19.897Z,100.00
2023-01-13T07:43:49.644Z,100.00
2023-01-13T07:46:18.838Z,100.00
2023-01-13T07:48:48.035Z,100.00
2023-01-13T07:51:16.014Z,100.00
2023-01-13T07:53:43.577Z,100.00
2023-01-13T07:56:11.366Z,100.00
2023-01-13T07:58:39.341Z,100.00
2023-01-13T08:01:09.049Z,100.00
2023-01-13T08:03:37.182Z,100.00
2023-01-13T08:06:05.977Z,100.00
2023-01-13T08:08:33.998Z,100.00
2023-01-13T08:11:03.299Z,100.00
2023-01-13T08:13:31.305Z,100.00
2023-01-13T08:16:01.922Z,100.00
2023-01-13T08:18:30.863Z,100.00
2023-01-13T08:21:11.862Z,100.00
2023-01-13T08:23:40.617Z,100.00
2023-01-13T08:26:12.680Z,100.00
2023-01-13T08:28:40.823Z,100.00
2023-01-13T08:31:11.639Z,100.00
2023-01-13T08:33:39.700Z,100.00
2023-01-13T08:36:09.752Z,100.00
2023-01-13T08:38:37.648Z,100.00
2023-01-13T08:41:12.921Z,100.00
2023-01-13T08:43:41.051Z,100.00
2023-01-13T08:46:09.024Z,100.00
2023-01-13T08:48:36.934Z,100.00
2023-01-13T08:51:07.431Z,100.00
2023-01-13T08:53:35.332Z,100.00
2023-01-13T08:56:07.680Z,100.00
2023-01-13T08:58:35.550Z,100.00
2023-01-13T09:01:07.027Z,100.00
2023-01-13T09:03:34.970Z,100.00
2023-01-13T09:06:02.932Z,100.00
2023-01-13T09:08:30.619Z,100.00
2023-01-13T09:10:58.680Z,100.00
2023-01-13T09:13:26.551Z,100.00
2023-01-13T09:15:57.013Z,100.00
2023-01-13T09:18:25.025Z,100.00
2023-01-13T09:20:52.715Z,100.00
2023-01-13T09:23:20.229Z,100.00
2023-01-13T09:25:49.228Z,100.00
2023-01-13T09:28:16.945Z,100.00
2023-01-13T09:30:44.598Z,100.00
2023-01-13T09:33:31.191Z,100.00
2023-01-13T09:35:59.346Z,100.00
2023-01-13T09:38:27.541Z,100.00
2023-01-13T09:40:55.922Z,100.00
2023-01-13T09:43:44.957Z,100.00
2023-01-13T09:46:37.337Z,100.00
2023-01-13T09:49:05.361Z,100.00
2023-01-13T09:51:37.859Z,100.00
2023-01-13T09:54:32.330Z,100.00
2023-01-13T09:57:00.302Z,100.00
2023-01-13T09:59:34.501Z,100.00
2023-01-13T10:02:24.451Z,100.00
2023-01-13T10:05:21.743Z,100.00
2023-01-13T10:07:55.285Z,100.00
2023-01-13T10:10:37.912Z,100.00
2023-01-13T10:13:28.543Z,100.00
2023-01-13T10:15:56.705Z,100.00
2023-01-13T10:18:30.101Z,100.00
2023-01-13T10:21:13.416Z,100.00
2023-01-13T10:23:53.166Z,100.00
2023-01-13T10:26:50.192Z,100.00
2023-01-13T10:29:20.746Z,100.00
2023-01-13T10:31:49.399Z,100.00
2023-01-13T10:34:17.629Z,100.00
2023-01-13T10:37:06.819Z,100.00
2023-01-13T10:39:48.349Z,100.00
2023-01-13T10:42:18.409Z,100.00
2023-01-13T10:44:54.731Z,100.00
2023-01-13T10:47:30.408Z,99.40
2023-01-13T10:50:01.170Z,98.70
2023-01-13T10:52:31.857Z,98.63
2023-01-13T10:55:01.061Z,98.87
2023-01-13T10:57:29.140Z,98.71
2023-01-13T10:59:57.262Z,99.00
2023-01-13T11:02:31.420Z,99.90
2023-01-13T11:05:03.602Z,99.30
2023-01-13T11:07:46.456Z,99.82
2023-01-13T11:10:24.709Z,98.26
2023-01-13T11:13:17.129Z,98.96
2023-01-13T11:15:55.217Z,99.53
2023-01-13T11:18:33.151Z,98.58
2023-01-13T11:21:04.997Z,98.94
2023-01-13T11:23:37.119Z,99.04
2023-01-13T11:26:29.503Z,98.08
2023-01-13T11:29:02.817Z,97.66
2023-01-13T11:31:34.654Z,97.83
2023-01-13T11:34:16.472Z,98.02
2023-01-13T11:36:52.715Z,97.17
2023-01-13T11:39:21.198Z,97.09
2023-01-13T11:45:41.553Z,97.20
2023-01-13T11:48:14.752Z,96.81
2023-01-13T11:50:46.683Z,96.58
2023-01-13T11:53:31.026Z,96.01
2023-01-13T11:56:27.082Z,96.16
2023-01-13T11:59:13.722Z,96.49
2023-01-13T12:01:53.780Z,95.96
2023-01-13T12:04:44.951Z,96.47
2023-01-13T12:07:38.402Z,95.93
2023-01-13T12:10:57.429Z,95.47
2023-01-13T12:13:41.447Z,95.19
2023-01-13T12:16:32.682Z,95.38
2023-01-13T12:20:00.813Z,94.86
2023-01-13T12:22:35.332Z,94.47
2023-01-13T12:25:23.296Z,94.50
2023-01-13T12:27:56.672Z,93.63
2023-01-13T12:30:53.542Z,93.75
2023-01-13T12:33:48.735Z,93.71
2023-01-13T12:36:21.663Z,94.14
2023-01-13T12:38:53.276Z,93.55
2023-01-13T12:42:20.289Z,93.26
2023-01-13T12:45:18.467Z,93.12
2023-01-13T12:47:46.706Z,92.77
2023-01-13T12:50:26.599Z,92.66
2023-01-13T12:53:02.579Z,92.49
2023-01-13T12:55:35.480Z,92.56
2023-01-13T12:58:06.660Z,92.69
2023-01-13T13:00:53.553Z,92.57
2023-01-13T13:03:36.047Z,91.58
2023-01-13T13:06:21.219Z,91.25
2023-01-13T13:09:04.854Z,91.57
2023-01-13T13:11:58.669Z,91.92
2023-01-13T13:14:42.035Z,91.66
2023-01-13T13:17:28.273Z,91.42
2023-01-13T13:19:57.706Z,91.49
2023-01-13T13:22:28.625Z,91.32
2023-01-13T13:24:56.479Z,91.59
2023-01-13T13:27:31.733Z,91.65
2023-01-13T13:30:15.437Z,91.90
2023-01-13T13:33:06.187Z,91.32
2023-01-13T13:35:56.347Z,91.19
2023-01-13T13:39:00.971Z,91.32
2023-01-13T13:41:48.449Z,91.24
2023-01-13T13:44:51.043Z,90.74
2023-01-13T13:47:19.194Z,90.46
2023-01-13T13:49:52.383Z,90.39
2023-01-13T13:52:30.296Z,90.86
2023-01-13T13:55:05.213Z,90.63
2023-01-13T13:57:39.884Z,91.27
2023-01-13T14:00:31.621Z,90.78
2023-01-13T14:03:02.582Z,90.64
2023-01-13T14:05:33.166Z,90.63
2023-01-13T14:08:07.247Z,90.53
2023-01-13T14:10:39.635Z,90.53
2023-01-13T14:13:25.812Z,90.62
2023-01-13T14:16:00.614Z,90.73
2023-01-13T14:18:31.323Z,90.57
2023-01-13T14:21:28.467Z,90.90
2023-01-13T14:24:14.134Z,91.24
2023-01-13T14:26:42.026Z,91.13
2023-01-13T14:29:16.754Z,91.19
2023-01-13T14:31:47.805Z,91.49
2023-01-13T14:34:32.346Z,91.63
2023-01-13T14:37:03.165Z,91.75
2023-01-13T14:39:38.968Z,91.37
2023-01-13T14:42:12.745Z,91.31
2023-01-13T14:44:45.637Z,91.84
2023-01-13T14:47:27.930Z,91.87
2023-01-13T14:50:11.206Z,91.83
2023-01-13T14:52:57.147Z,91.87
2023-01-13T14:55:37.363Z,91.81
2023-01-13T14:58:23.570Z,91.73
2023-01-13T15:00:52.431Z,91.98
2023-01-13T15:03:21.085Z,92.35
2023-01-13T15:05:51.261Z,92.29
2023-01-13T15:08:27.653Z,92.34
2023-01-13T15:11:02.623Z,92.44
2023-01-13T15:13:35.616Z,92.72
2023-01-13T15:16:14.006Z,93.12
2023-01-13T15:18:42.218Z,93.41
2023-01-13T15:21:09.863Z,93.56
2023-01-13T15:23:39.947Z,94.00
2023-01-13T15:26:20.965Z,94.04
2023-01-13T15:28:49.127Z,94.17
2023-01-13T15:31:17.536Z,94.73
2023-01-13T15:33:45.120Z,94.80
2023-01-13T15:36:22.184Z,94.89
2023-01-13T15:38:50.064Z,94.81
2023-01-13T15:41:17.845Z,95.00
2023-01-13T15:44:03.659Z,95.04
2023-01-13T15:46:40.670Z,95.06
2023-01-13T15:49:20.481Z,95.21
2023-01-13T15:51:49.436Z,95.67
2023-01-13T15:54:19.907Z,96.48
2023-01-13T15:56:47.772Z,96.54
2023-01-13T15:59:18.592Z,96.87
2023-01-13T16:01:46.254Z,96.92
2023-01-13T16:04:14.027Z,97.10
2023-01-13T16:06:41.743Z,97.05
2023-01-13T16:09:12.909Z,97.25
2023-01-13T16:11:40.736Z,97.53
2023-01-13T16:14:08.260Z,98.01
2023-01-13T16:16:36.218Z,97.80
2023-01-13T16:19:04.181Z,98.01
2023-01-13T16:21:32.079Z,99.03
2023-01-13T16:23:59.662Z,98.97
2023-01-13T16:26:36.165Z,99.21
2023-01-13T16:29:04.632Z,99.30
2023-01-13T16:31:33.919Z,99.21
2023-01-13T16:34:03.047Z,100.00
2023-01-13T16:36:33.705Z,100.00
2023-01-13T16:39:02.114Z,99.94
2023-01-13T16:41:29.915Z,100.00
2023-01-13T16:43:57.941Z,100.00
2023-01-13T16:46:32.418Z,100.00
2023-01-13T16:49:04.093Z,100.00
2023-01-13T16:51:33.319Z,100.00
2023-01-13T16:54:01.131Z,100.00
2023-01-13T16:56:31.164Z,100.00
2023-01-13T16:59:02.612Z,100.00
2023-01-13T17:01:33.267Z,100.00
2023-01-13T17:04:01.652Z,100.00
2023-01-13T17:06:33.366Z,100.00
2023-01-13T17:09:16.025Z,100.00
2023-01-13T17:11:43.535Z,100.00
2023-01-13T17:14:18.893Z,100.00
2023-01-13T17:16:47.787Z,100.00
2023-01-13T17:19:15.737Z,100.00
2023-01-13T17:21:43.998Z,100.00
2023-01-13T17:24:12.464Z,100.00
2023-01-13T17:26:44.194Z,100.00
2023-01-13T17:29:14.370Z,100.00
2023-01-13T17:31:49.129Z,100.00
2023-01-13T17:34:17.208Z,100.00
2023-01-13T17:36:45.151Z,100.00
2023-01-13T17:39:26.234Z,100.00
2023-01-13T17:41:56.024Z,100.00
2023-01-13T17:44:23.771Z,100.00
2023-01-13T17:46:51.468Z,100.00
2023-01-13T17:49:21.351Z,100.00
2023-01-13T17:51:51.171Z,100.00
2023-01-13T17:54:19.456Z,100.00
2023-01-13T17:56:47.237Z,100.00
2023-01-13T17:59:17.035Z,100.00
2023-01-13T18:01:45.691Z,100.00
2023-01-13T18:04:16.159Z,100.00
2023-01-13T18:06:44.282Z,100.00
2023-01-13T18:09:11.937Z,100.00
2023-01-13T18:11:41.041Z,100.00
2023-01-13T18:14:09.934Z,100.00
2023-01-13T18:16:37.956Z,100.00
2023-01-13T18:19:24.939Z,100.00
2023-01-13T18:22:11.561Z,100.00
2023-01-13T18:24:58.273Z,100.00
2023-01-13T18:27:30.707Z,100.00
2023-01-13T18:30:00.322Z,100.00
2023-01-13T18:32:32.907Z,100.00
2023-01-13T18:35:06.641Z,100.00
2023-01-13T18:37:42.055Z,100.00
2023-01-13T18:40:13.483Z,100.00
2023-01-13T18:42:54.976Z,100.00
2023-01-13T18:45:25.565Z,100.00
2023-01-13T18:47:55.101Z,100.00
2023-01-13T18:50:24.051Z,100.00
2023-01-13T18:52:52.423Z,100.00
2023-01-13T18:55:21.355Z,100.00
2023-01-13T18:57:50.396Z,100.00
2023-01-13T19:00:20.081Z,100.00
2023-01-13T19:02:50.840Z,100.00
2023-01-13T19:05:19.163Z,100.00
2023-01-13T19:07:50.963Z,100.00
2023-01-13T19:10:19.222Z,100.00
2023-01-13T19:12:47.599Z,100.00
2023-01-13T19:15:15.627Z,100.00
2023-01-13T19:17:45.043Z,100.00
2023-01-13T19:20:13.592Z,100.00
2023-01-13T19:22:41.713Z,100.00
2023-01-13T19:25:10.594Z,100.00
2023-01-13T19:27:39.769Z,100.00
2023-01-13T19:30:08.693Z,100.00
2023-01-13T19:32:38.883Z,100.00
2023-01-13T19:35:08.748Z,100.00
2023-01-13T19:37:37.030Z,100.00
2023-01-13T19:40:09.408Z,100.00
2023-01-13T19:42:56.588Z,100.00
2023-01-13T19:45:26.730Z,100.00
2023-01-13T19:48:01.743Z,100.00
2023-01-13T19:50:29.504Z,100.00
2023-01-13T19:52:57.816Z,100.00
2023-01-13T19:55:25.590Z,100.00
2023-01-13T19:57:53.390Z,100.00
2023-01-13T20:00:21.996Z,100.00
2023-01-13T20:02:53.111Z,100.00
2023-01-13T20:05:22.731Z,100.00
2023-01-13T20:07:51.047Z,100.00
2023-01-13T20:10:20.566Z,100.00
2023-01-13T20:12:48.426Z,100.00
2023-01-13T20:15:16.675Z,100.00
2023-01-13T20:17:44.271Z,100.00
2023-01-13T20:20:15.050Z,100.00
2023-01-13T20:22:44.849Z,100.00
2023-01-13T20:25:16.955Z,100.00
2023-01-13T20:27:46.098Z,100.00
2023-01-13T20:30:14.955Z,100.00
2023-01-13T20:32:45.796Z,100.00
2023-01-13T20:35:14.129Z,100.00
2023-01-13T20:37:42.753Z,100.00
2023-01-13T20:40:14.584Z,100.00
2023-01-13T20:42:45.182Z,100.00
2023-01-13T20:45:17.320Z,100.00
2023-01-13T20:47:45.641Z,100.00
2023-01-13T20:50:13.658Z,100.00
2023-01-13T20:52:43.434Z,100.00
2023-01-13T20:55:11.991Z,100.00
2023-01-13T20:57:40.912Z,100.00
2023-01-13T21:00:10.424Z,100.00
2023-01-13T21:02:40.971Z,100.00
2023-01-13T21:05:09.657Z,100.00
2023-01-13T21:07:37.370Z,100.00
2023-01-13T21:10:07.137Z,100.00
2023-01-13T21:12:53.273Z,100.00
2023-01-13T21:15:22.270Z,100.00
2023-01-13T21:18:10.009Z,100.00
2023-01-13T21:20:39.164Z,100.00
2023-01-13T21:23:06.982Z,100.00
2023-01-13T21:25:36.477Z,100.00
2023-01-13T21:28:08.619Z,100.00
2023-01-13T21:30:38.419Z,100.00
2023-01-13T21:33:06.524Z,100.00
2023-01-13T21:35:37.823Z,100.00
2023-01-13T21:38:05.407Z,100.00
2023-01-13T21:40:33.181Z,100.00
2023-01-13T21:43:19.007Z,100.00
2023-01-13T21:46:15.995Z,100.00
2023-01-13T21:48:43.547Z,100.00
2023-01-13T21:51:11.361Z,100.00
2023-01-13T21:53:38.897Z,100.00
2023-01-13T21:56:06.864Z,100.00
2023-01-13T21:58:34.731Z,100.00
2023-01-13T22:01:03.072Z,100.00
2023-01-13T22:03:50.974Z,100.00
2023-01-13T22:06:18.529Z,100.00
2023-01-13T22:08:46.450Z,100.00
2023-01-13T22:11:14.345Z,100.00
2023-01-13T22:14:00.672Z,100.00
2023-01-13T22:16:28.592Z,100.00
2023-01-13T22:18:56.207Z,100.00
2023-01-13T22:21:23.696Z,100.00
2023-01-13T22:23:51.906Z,100.00
2023-01-13T22:26:19.474Z,100.00
2023-01-13T22:28:47.064Z,100.00
2023-01-13T22:31:17.237Z,100.00
2023-01-13T22:33:48.043Z,100.00
2023-01-13T22:36:16.163Z,100.00
2023-01-13T22:38:43.924Z,100.00
2023-01-13T22:41:11.493Z,100.00
2023-01-13T22:43:39.822Z,100.00
2023-01-13T22:46:10.213Z,100.00
2023-01-13T22:48:38.700Z,100.00
2023-01-13T22:51:10.511Z,100.00
2023-01-13T22:53:38.451Z,100.00
2023-01-13T22:56:07.154Z,100.00
2023-01-13T22:58:34.667Z,100.00
2023-01-13T23:01:16.221Z,100.00
2023-01-13T23:03:47.797Z,100.00
2023-01-13T23:06:16.166Z,100.00
2023-01-13T23:08:44.852Z,100.00
2023-01-13T23:11:14.392Z,100.00
2023-01-13T23:13:43.358Z,100.00
2023-01-13T23:16:21.219Z,100.00
2023-01-13T23:18:49.271Z,100.00
2023-01-13T23:21:20.532Z,100.00
2023-01-13T23:23:48.660Z,100.00
2023-01-13T23:26:16.833Z,100.00
2023-01-13T23:28:45.114Z,100.00
2023-01-13T23:31:15.011Z,100.00
2023-01-13T23:33:43.510Z,100.00
2023-01-13T23:36:14.492Z,100.00
2023-01-13T23:38:42.770Z,100.00
2023-01-13T23:41:13.579Z,100.00
2023-01-13T23:43:41.534Z,100.00
2023-01-13T23:46:12.537Z,100.00
2023-01-13T23:48:40.315Z,100.00
2023-01-13T23:51:10.981Z,100.00
2023-01-13T23:53:44.391Z,100.00
2023-01-13T23:56:23.662Z,100.00
2023-01-13T23:58:51.478Z,100.00
